Ruleville, Mississippi
Current Conditions -  °F | °C
As of 3:35 PM on Saturday 20 Dec 2014 (Local Time) from KRNV Reporting Station
Clear Clear  
Wind Chill: 11°   Ceiling: Unl
Heat Index: 11°   Visibility: 10mi
Dew Point:   Wind: 6mph
Humidity: 63%   Direction: 20°NNE
Pressure: 30.2"   Gusts: NA
Location:  33.73°N, 90.55°W
Report Text: KRNV 202135Z AUTO 02005KT 10SM CLR 11/05 A3020 RMK AO2 T01140045
Loading
Personal Weather Stations






























Interactive Weather Map New forecast layout! Learn more

10-Day Weather Forecast

Advertisements
Track Severe Weather on mobile